Time;durP1;ratioP1;P1;durP2;ratioP2;P2;SDS_P1;SDS_P2;PMS_P1;PMS_P2;Temp;Humidity;BMP_temperature;BMP_pressure;BME280_temperature;BME280_humidity;BME280_pressure;Samples;Min_cycle;Max_cycle;Signal;HPM_P1;HPM_P2
2021/10/27 00:00:56;;;;;;;14.43;7.30;;;;;;;4.45;67.34;100451.16;1814828;78;20950;-59
2021/10/27 00:03:22;;;;;;;12.90;7.57;;;;;;;4.43;67.49;100457.83;1807155;78;21424;-59
2021/10/27 00:05:48;;;;;;;7.80;5.57;;;;;;;4.42;67.63;100456.55;1804820;78;21516;-58
2021/10/27 00:08:15;;;;;;;9.63;5.77;;;;;;;4.40;67.75;100449.89;1806657;78;21084;-58
2021/10/27 00:10:42;;;;;;;12.07;5.57;;;;;;;4.43;67.85;100458.28;1805635;78;21109;-59
2021/10/27 00:13:08;;;;;;;12.50;5.93;;;;;;;4.44;67.92;100448.05;1772427;80;21020;-58
2021/10/27 00:15:35;;;;;;;16.80;6.87;;;;;;;4.44;67.98;100443.61;1772075;80;21059;-56
2021/10/27 00:18:02;;;;;;;11.37;5.97;;;;;;;4.44;68.06;100442.28;1799730;78;21048;-59
2021/10/27 00:20:28;;;;;;;12.90;6.77;;;;;;;4.42;68.11;100438.73;1779550;78;21134;-61
2021/10/27 00:22:55;;;;;;;10.77;6.70;;;;;;;4.41;68.13;100438.34;1800660;78;23303;-60
2021/10/27 00:25:21;;;;;;;10.43;7.00;;;;;;;4.39;68.21;100440.13;1803737;78;21079;-57
2021/10/27 00:27:47;;;;;;;18.97;9.57;;;;;;;4.37;68.31;100443.25;1804148;78;21468;-59
2021/10/27 00:30:14;;;;;;;16.93;11.43;;;;;;;4.35;68.43;100441.50;1784912;78;21487;-58
2021/10/27 00:32:40;;;;;;;16.57;12.97;;;;;;;4.34;68.50;100440.62;1788413;78;22822;-60
2021/10/27 00:35:08;;;;;;;14.87;11.07;;;;;;;4.35;68.61;100444.17;1773634;78;21188;-60
2021/10/27 00:37:35;;;;;;;16.20;11.17;;;;;;;4.34;68.66;100438.44;1779043;78;21379;-59
2021/10/27 00:40:03;;;;;;;16.67;9.70;;;;;;;4.33;68.82;100436.22;1778056;79;20877;-58
2021/10/27 00:42:29;;;;;;;15.80;9.97;;;;;;;4.31;68.89;100434.02;1772632;80;21408;-59
2021/10/27 00:44:56;;;;;;;12.93;7.87;;;;;;;4.29;68.97;100443.80;1765325;80;21362;-59
2021/10/27 00:47:22;;;;;;;15.90;7.87;;;;;;;4.29;69.02;100438.92;1810554;78;21085;-58
2021/10/27 00:49:48;;;;;;;12.67;6.87;;;;;;;4.26;69.09;100434.50;1775357;78;20891;-57
2021/10/27 00:52:16;;;;;;;10.67;5.80;;;;;;;4.24;69.18;100438.11;1776681;80;20937;-59
2021/10/27 00:54:46;;;;;;;9.60;5.93;;;;;;;4.24;69.28;100435.44;1773116;80;20985;-59
2021/10/27 00:57:13;;;;;;;12.70;6.43;;;;;;;4.22;69.42;100431.45;1777815;78;20935;-60
2021/10/27 00:59:41;;;;;;;12.47;6.43;;;;;;;4.23;69.53;100429.23;1778851;80;21299;-58
2021/10/27 01:02:08;;;;;;;7.73;5.60;;;;;;;4.25;69.63;100431.88;1797613;78;20922;-57
2021/10/27 01:04:35;;;;;;;8.33;5.77;;;;;;;4.25;69.68;100429.22;1773851;80;20926;-59
2021/10/27 01:07:02;;;;;;;8.50;5.03;;;;;;;4.25;69.79;100427.44;1774599;80;20910;-58
2021/10/27 01:09:28;;;;;;;8.63;5.87;;;;;;;4.25;69.84;100424.77;1774985;80;21025;-58
2021/10/27 01:11:55;;;;;;;7.67;4.77;;;;;;;4.25;69.87;100419.89;1770722;80;21830;-58
2021/10/27 01:14:21;;;;;;;13.77;6.73;;;;;;;4.23;69.92;100417.69;1770777;80;21025;-59
2021/10/27 01:16:48;;;;;;;14.13;6.17;;;;;;;4.19;69.95;100416.83;1769724;80;21069;-60
2021/10/27 01:19:14;;;;;;;14.03;7.43;;;;;;;4.17;70.02;100419.50;1774706;80;21041;-60
2021/10/27 01:21:41;;;;;;;13.73;9.80;;;;;;;4.16;70.15;100416.44;1771182;80;21065;-60
2021/10/27 01:24:08;;;;;;;11.17;7.87;;;;;;;4.15;70.26;100415.11;1769387;80;21144;-58
2021/10/27 01:26:34;;;;;;;10.50;8.50;;;;;;;4.14;70.38;100415.56;1772403;79;21717;-60
2021/10/27 01:29:01;;;;;;;9.77;6.87;;;;;;;4.14;70.46;100409.34;1759942;80;21392;-61
2021/10/27 01:31:27;;;;;;;11.60;7.13;;;;;;;4.13;70.50;100409.80;1767614;80;22705;-59
2021/10/27 01:33:53;;;;;;;7.73;6.73;;;;;;;4.12;70.54;100408.48;1771879;80;21005;-59
2021/10/27 01:36:20;;;;;;;11.00;5.93;;;;;;;4.10;70.66;100403.61;1764283;80;21066;-59
2021/10/27 01:38:48;;;;;;;9.80;5.90;;;;;;;4.07;70.77;100411.66;1763633;80;21033;-59
2021/10/27 01:41:14;;;;;;;6.23;4.60;;;;;;;4.06;70.89;100416.55;1760627;80;21100;-59
2021/10/27 01:43:54;;;;;;;8.50;5.10;;;;;;;4.05;71.06;100410.78;1793899;79;21514;-60
2021/10/27 01:46:32;;;;;;;6.57;4.27;;;;;;;4.04;71.22;100409.90;1776053;80;20942;-61
2021/10/27 01:49:02;;;;;;;11.83;5.73;;;;;;;4.05;71.35;100412.12;1793928;79;21422;-59
2021/10/27 01:51:29;;;;;;;9.47;5.43;;;;;;;4.04;71.48;100399.24;1772475;80;22041;-60
2021/10/27 01:53:56;;;;;;;7.00;4.30;;;;;;;4.05;71.52;100397.47;1773385;80;21413;-60
2021/10/27 01:56:23;;;;;;;11.10;4.73;;;;;;;4.05;71.61;100397.47;1769896;80;21042;-60
2021/10/27 01:58:53;;;;;;;8.83;5.57;;;;;;;4.04;71.77;100391.70;1769426;80;21101;-59
2021/10/27 02:01:19;;;;;;;9.63;4.27;;;;;;;4.01;71.92;100389.94;1779699;79;21197;-61
2021/10/27 02:03:45;;;;;;;8.23;4.00;;;;;;;4.03;72.00;100393.92;1791812;79;21084;-60
2021/10/27 02:06:12;;;;;;;7.90;4.00;;;;;;;4.02;72.13;100397.48;1782163;79;21052;-60
2021/10/27 02:08:38;;;;;;;7.23;4.67;;;;;;;4.01;72.25;100397.94;1790440;79;20934;-59
2021/10/27 02:11:05;;;;;;;6.63;4.20;;;;;;;4.03;72.37;100397.92;1784799;79;21410;-60
2021/10/27 02:13:33;;;;;;;6.67;5.13;;;;;;;4.04;72.53;100394.36;1791142;79;21116;-60
2021/10/27 02:15:59;;;;;;;5.73;4.53;;;;;;;4.02;72.68;100391.71;1789763;79;20863;-59
2021/10/27 02:18:26;;;;;;;9.07;4.20;;;;;;;4.00;72.80;100392.17;1784379;79;21041;-61
2021/10/27 02:20:53;;;;;;;6.40;3.83;;;;;;;4.00;72.93;100385.52;1786022;79;21096;-60
2021/10/27 02:23:21;;;;;;;11.40;4.50;;;;;;;4.01;73.06;100386.39;1785192;79;22013;-58
2021/10/27 02:25:48;;;;;;;5.83;3.93;;;;;;;4.01;73.25;100381.07;1783303;79;22457;-61
2021/10/27 02:28:14;;;;;;;5.33;3.47;;;;;;;4.01;73.40;100384.62;1783948;79;21092;-58
2021/10/27 02:30:41;;;;;;;9.37;4.23;;;;;;;4.03;73.48;100384.61;1783179;79;21052;-59
2021/10/27 02:33:08;;;;;;;7.83;4.97;;;;;;;4.03;73.58;100377.50;1785231;79;21668;-60
2021/10/27 02:35:34;;;;;;;6.57;4.23;;;;;;;4.03;73.68;100377.50;1782790;79;21519;-59
2021/10/27 02:38:00;;;;;;;5.20;3.47;;;;;;;4.05;73.78;100376.16;1784979;79;21116;-61
2021/10/27 02:40:26;;;;;;;7.33;4.43;;;;;;;4.05;73.87;100377.03;1784875;79;21025;-60
2021/10/27 02:42:53;;;;;;;4.60;3.67;;;;;;;4.06;73.93;100387.25;1785368;79;21072;-59
2021/10/27 02:45:19;;;;;;;8.23;3.57;;;;;;;4.07;73.96;100383.69;1786880;79;21029;-60
2021/10/27 02:47:45;;;;;;;9.40;3.97;;;;;;;4.09;74.03;100381.86;1805459;78;21021;-59
2021/10/27 02:50:13;;;;;;;4.83;3.67;;;;;;;4.10;74.09;100376.52;1802767;78;21068;-58
2021/10/27 02:52:40;;;;;;;8.73;6.63;;;;;;;4.10;74.13;100375.63;1802738;78;21025;-59
2021/10/27 02:55:08;;;;;;;12.50;10.20;;;;;;;4.11;74.24;100377.40;1804453;78;21759;-60
2021/10/27 02:57:35;;;;;;;18.10;12.50;;;;;;;4.09;74.25;100376.53;1780465;79;20897;-59
2021/10/27 03:00:03;;;;;;;19.43;12.07;;;;;;;4.08;74.33;100379.64;1783419;79;20996;-58
2021/10/27 03:02:30;;;;;;;14.63;11.27;;;;;;;4.07;74.38;100375.24;1777406;79;21476;-60
2021/10/27 03:04:57;;;;;;;9.47;8.13;;;;;;;4.09;74.40;100375.20;1802845;78;21736;-60
2021/10/27 03:07:23;;;;;;;9.10;7.77;;;;;;;4.10;74.42;100367.19;1779373;78;21037;-59
2021/10/27 03:09:50;;;;;;;11.93;7.20;;;;;;;4.09;74.47;100368.53;1778473;79;21782;-58
2021/10/27 03:12:16;;;;;;;9.53;6.47;;;;;;;4.08;74.53;100365.47;1777887;79;21090;-59
2021/10/27 03:14:43;;;;;;;12.03;7.10;;;;;;;4.05;74.59;100355.72;1784287;78;21847;-59
2021/10/27 03:17:09;;;;;;;7.13;5.37;;;;;;;4.03;74.61;100360.18;1774783;78;21327;-60
2021/10/27 03:19:35;;;;;;;6.20;4.70;;;;;;;4.00;74.66;100358.87;1779738;78;21040;-59
2021/10/27 03:22:02;;;;;;;6.90;3.93;;;;;;;4.00;74.70;100364.65;1807430;78;21181;-59
2021/10/27 03:24:29;;;;;;;6.03;3.83;;;;;;;4.00;74.81;100363.31;1799176;78;21059;-59
2021/10/27 03:26:55;;;;;;;7.03;3.90;;;;;;;3.99;74.91;100366.46;1774643;78;21133;-59
2021/10/27 03:29:21;;;;;;;6.90;3.90;;;;;;;3.97;74.94;100365.59;1772332;78;21033;-59
2021/10/27 03:31:48;;;;;;;8.23;4.70;;;;;;;3.97;74.94;100359.37;1801365;78;21048;-60
2021/10/27 03:34:14;;;;;;;6.67;3.77;;;;;;;3.96;75.01;100357.61;1772148;79;21041;-59
2021/10/27 03:36:40;;;;;;;9.13;4.00;;;;;;;3.96;75.05;100357.61;1778938;78;21426;-59
2021/10/27 03:39:07;;;;;;;9.13;4.90;;;;;;;3.96;75.07;100356.28;1774692;79;21210;-60
2021/10/27 03:41:33;;;;;;;6.97;3.60;;;;;;;3.97;75.15;100354.94;1776652;79;21077;-58
2021/10/27 03:44:00;;;;;;;7.43;5.67;;;;;;;3.98;75.16;100350.05;1774703;79;21431;-60
2021/10/27 03:46:26;;;;;;;12.60;5.20;;;;;;;4.00;75.24;100350.88;1784371;78;21522;-59
2021/10/27 03:48:52;;;;;;;5.07;3.50;;;;;;;4.03;75.26;100350.86;1801209;78;21620;-59
2021/10/27 03:51:20;;;;;;;7.80;4.33;;;;;;;4.04;75.29;100349.96;1806448;78;21132;-57
2021/10/27 03:53:46;;;;;;;4.27;3.77;;;;;;;4.05;75.36;100342.85;1806441;78;21084;-60
2021/10/27 03:56:12;;;;;;;6.87;3.73;;;;;;;4.04;75.44;100347.30;1767484;80;21112;-60
2021/10/27 03:58:38;;;;;;;5.90;4.20;;;;;;;4.04;75.43;100351.73;1804926;78;21044;-60
2021/10/27 04:01:05;;;;;;;10.27;3.97;;;;;;;4.01;75.45;100348.66;1806187;78;21080;-59
2021/10/27 04:03:31;;;;;;;6.23;3.60;;;;;;;4.01;75.50;100353.09;1792238;78;21510;-61
2021/10/27 04:05:58;;;;;;;4.30;2.87;;;;;;;4.00;75.59;100348.22;1749203;80;21135;-59
2021/10/27 04:08:26;;;;;;;8.63;4.30;;;;;;;4.01;75.65;100345.11;1746886;80;21061;-60
2021/10/27 04:10:52;;;;;;;4.43;3.33;;;;;;;3.99;75.71;100341.61;1740201;81;21139;-59
2021/10/27 04:13:19;;;;;;;6.93;4.70;;;;;;;3.98;75.80;100346.05;1784536;78;21065;-60
2021/10/27 04:15:45;;;;;;;10.50;3.97;;;;;;;3.98;75.83;100342.05;1740083;80;21903;-60
2021/10/27 04:18:12;;;;;;;3.60;3.30;;;;;;;3.97;75.84;100346.06;1754933;79;21108;-60
2021/10/27 04:20:38;;;;;;;4.93;3.53;;;;;;;3.95;75.93;100339.86;1757158;79;21415;-60
2021/10/27 04:23:05;;;;;;;7.83;3.73;;;;;;;3.94;75.95;100340.31;1756279;79;22244;-59
2021/10/27 04:25:32;;;;;;;4.10;2.63;;;;;;;3.93;76.06;100342.54;1790983;78;21616;-60
2021/10/27 04:27:58;;;;;;;5.30;2.33;;;;;;;3.95;76.13;100337.20;1790166;78;21681;-59
2021/10/27 04:30:25;;;;;;;5.87;2.47;;;;;;;3.97;76.14;100342.95;1749329;80;21108;-59
2021/10/27 04:32:51;;;;;;;6.53;4.00;;;;;;;3.96;76.17;100346.95;1741707;80;21029;-59
2021/10/27 04:35:19;;;;;;;5.57;2.93;;;;;;;3.94;76.24;100343.42;1777516;79;21037;-60
2021/10/27 04:37:45;;;;;;;7.73;3.30;;;;;;;3.94;76.24;100338.09;1779251;79;21064;-60
2021/10/27 04:40:14;;;;;;;10.03;4.73;;;;;;;3.93;76.23;100349.20;1752816;80;21079;-58
2021/10/27 04:42:41;;;;;;;5.97;4.07;;;;;;;3.91;76.24;100348.36;1748224;80;21053;-60
2021/10/27 04:45:09;;;;;;;6.73;3.87;;;;;;;3.89;76.26;100345.27;1756037;79;21660;-60
2021/10/27 04:47:36;;;;;;;7.77;3.00;;;;;;;3.89;76.31;100351.94;1760899;79;21042;-58
2021/10/27 04:50:05;;;;;;;3.57;2.90;;;;;;;3.89;76.35;100346.60;1758569;79;21486;-58
2021/10/27 04:52:33;;;;;;;7.03;3.23;;;;;;;3.87;76.36;100346.62;1759587;79;21572;-60
2021/10/27 04:54:59;;;;;;;4.10;3.13;;;;;;;3.88;76.40;100356.38;1755763;79;21169;-58
2021/10/27 04:57:26;;;;;;;7.87;4.27;;;;;;;3.87;76.39;100341.73;1754575;79;21036;-60
2021/10/27 04:59:52;;;;;;;5.67;3.40;;;;;;;3.86;76.37;100349.30;1755495;79;21370;-57
2021/10/27 05:02:18;;;;;;;6.53;4.70;;;;;;;3.85;76.43;100348.86;1754351;79;21635;-60
2021/10/27 05:04:46;;;;;;;10.93;4.60;;;;;;;3.85;76.45;100355.52;1758163;80;21529;-59
2021/10/27 05:07:15;;;;;;;3.27;2.97;;;;;;;3.85;76.48;100356.84;1757658;80;21101;-59
2021/10/27 05:09:42;;;;;;;7.67;3.80;;;;;;;3.87;76.47;100355.05;1745093;80;21012;-59
2021/10/27 05:12:10;;;;;;;4.83;3.57;;;;;;;3.87;76.50;100360.38;1751570;80;21089;-60
2021/10/27 05:14:38;;;;;;;4.87;3.90;;;;;;;3.89;76.48;100359.47;1744622;80;21016;-60
2021/10/27 05:17:12;;;;;;;6.23;3.50;;;;;;;3.93;76.50;100361.19;1769650;80;22772;-57
2021/10/27 05:19:40;;;;;;;;;;;;;;;3.97;76.52;100359.37;1768484;80;21101;-59
2021/10/27 05:22:07;;;;;;;6.17;4.27;;;;;;;4.01;76.48;100368.63;1765609;80;20183;-60
2021/10/27 05:24:33;;;;;;;7.30;4.37;;;;;;;4.02;76.37;100362.86;1764209;80;21318;-59
2021/10/27 05:27:00;;;;;;;7.07;4.50;;;;;;;4.02;76.32;100363.74;1763899;80;21060;-59
2021/10/27 05:29:26;;;;;;;6.80;5.57;;;;;;;4.02;76.33;100372.18;1765524;80;21670;-60
2021/10/27 05:31:52;;;;;;;10.70;3.57;;;;;;;4.05;76.29;100380.15;1764860;79;21022;-59
2021/10/27 05:34:19;;;;;;;7.57;4.00;;;;;;;4.06;76.25;100380.14;1763511;80;21073;-59
2021/10/27 05:36:46;;;;;;;6.60;2.40;;;;;;;4.08;76.24;100378.31;1764766;80;21058;-60
2021/10/27 05:39:14;;;;;;;6.37;3.07;;;;;;;4.11;76.25;100373.41;1763466;80;21037;-59
2021/10/27 05:41:45;;;;;;;5.40;2.83;;;;;;;4.13;76.25;100366.28;1780350;79;22203;-60
2021/10/27 05:44:11;;;;;;;12.90;4.90;;;;;;;4.16;76.26;100380.46;1751255;80;21096;-60
2021/10/27 05:46:40;;;;;;;8.10;5.73;;;;;;;4.19;76.24;100372.86;1749812;80;21093;-59
2021/10/27 05:49:47;;;;;;;9.07;5.60;;;;;;;4.23;76.22;100377.27;1778449;80;21541;-58
2021/10/27 05:51:56;;;;;;;8.98;5.65;;;;;;;4.27;76.14;100370.97;1742304;80;21112;-59
2021/10/27 05:57:03;;;;;;;9.93;5.22;;;;;;;4.27;76.09;100373.64;1778676;79;21025;-58
2021/10/27 05:59:30;;;;;;;7.07;4.30;;;;;;;4.29;76.13;100374.51;1747964;81;20988;-57
2021/10/27 06:01:56;;;;;;;8.93;3.57;;;;;;;4.33;76.14;100378.03;1782096;80;21127;-58
2021/10/27 06:04:23;;;;;;;5.47;3.63;;;;;;;4.38;76.17;100381.05;1746076;80;21140;-59
2021/10/27 06:06:49;;;;;;;4.70;3.77;;;;;;;4.46;76.10;100385.83;1783714;79;21203;-58
2021/10/27 06:09:16;;;;;;;5.87;3.60;;;;;;;4.54;76.02;100390.61;1782459;78;21049;-58
2021/10/27 06:11:44;;;;;;;6.43;4.83;;;;;;;4.62;76.01;100382.95;1747842;80;21095;-57
2021/10/27 06:14:11;;;;;;;7.80;5.47;;;;;;;4.69;75.87;100381.50;1780149;79;21586;-58
2021/10/27 06:16:39;;;;;;;7.37;4.77;;;;;;;4.76;75.75;100379.66;1781285;79;21089;-57
2021/10/27 06:19:05;;;;;;;8.27;5.47;;;;;;;4.81;75.64;100381.78;1783154;79;21808;-58
2021/10/27 06:21:33;;;;;;;5.63;4.70;;;;;;;4.85;75.50;100379.48;1784097;79;20921;-58
2021/10/27 06:24:00;;;;;;;5.73;3.97;;;;;;;4.90;75.39;100397.66;1752751;80;21344;-58
2021/10/27 06:26:27;;;;;;;7.30;4.23;;;;;;;4.94;75.34;100407.36;1750765;80;20953;-57
2021/10/27 06:29:08;;;;;;;5.53;3.80;;;;;;;5.03;75.28;100407.22;1757995;80;21355;-59
2021/10/27 06:31:36;;;;;;;5.43;4.17;;;;;;;5.11;75.12;100411.98;1746174;80;21127;-57
2021/10/27 06:34:16;;;;;;;5.20;4.07;;;;;;;5.19;74.97;100411.89;1750108;80;21517;-58
2021/10/27 06:36:53;;;;;;;7.07;4.67;;;;;;;5.26;74.78;100417.55;1751489;80;20886;-58
2021/10/27 06:45:58;;;;;;;8.18;5.10;;;;;;;5.43;74.18;100412.82;1767282;79;21101;-58
2021/10/27 06:46:59;;;;;;;8.90;4.33;;;;;;;5.52;73.99;100410.45;1767548;80;20991;-57
2021/10/27 06:49:26;;;;;;;10.00;5.07;;;;;;;5.59;73.83;100411.64;1767231;79;20949;-58
2021/10/27 06:51:52;;;;;;;9.53;5.33;;;;;;;5.67;73.65;100404.83;1767891;79;20872;-58
2021/10/27 06:54:19;;;;;;;5.07;4.30;;;;;;;5.74;73.48;100397.58;1767673;80;21116;-57
2021/10/27 06:56:46;;;;;;;9.70;5.17;;;;;;;5.82;73.34;100392.52;1764050;79;21097;-58
2021/10/27 06:59:21;;;;;;;8.63;4.87;;;;;;;5.89;73.13;100372.81;1748833;80;21053;-58
2021/10/27 07:04:41;;;;;;;5.90;4.80;;;;;;;6.02;72.68;100372.14;1753164;80;21788;-57
2021/10/27 07:15:05;;;;;;;8.73;4.50;;;;;;;6.36;72.01;100375.00;1773052;80;21053;-58
2021/10/27 07:17:31;;;;;;;7.77;5.57;;;;;;;6.45;71.78;100372.13;1763245;80;21080;-57
2021/10/27 07:20:03;;;;;;;7.33;3.67;;;;;;;6.56;71.48;100367.41;1765756;80;21037;-59
2021/10/27 07:22:31;;;;;;;7.70;5.30;;;;;;;6.67;71.26;100360.48;1763486;80;21579;-58
2021/10/27 07:24:59;;;;;;;8.30;6.40;;;;;;;6.74;70.96;100368.78;1765701;80;21100;-58
2021/10/27 07:27:26;;;;;;;9.73;6.97;;;;;;;6.78;70.69;100371.38;1763279;80;21291;-58
2021/10/27 07:29:52;;;;;;;4.83;4.37;;;;;;;6.84;70.42;100364.98;1762900;80;21716;-58
2021/10/27 07:32:19;;;;;;;11.27;5.53;;;;;;;6.91;70.22;100375.97;1764621;80;20935;-58
2021/10/27 07:34:53;;;;;;;10.83;5.30;;;;;;;6.97;70.00;100376.30;1767325;80;21270;-59
2021/10/27 07:43:04;;;;;;;7.87;5.83;;;;;;;7.25;69.41;100359.97;1787244;79;21036;-58
2021/10/27 07:45:26;;;;;;;8.90;6.97;;;;;;;7.37;69.16;100350.75;1767266;80;21104;-59
2021/10/27 07:47:54;;;;;;;7.93;6.47;;;;;;;7.45;68.87;100348.75;1788529;79;21130;-58
2021/10/27 07:50:23;;;;;;;9.87;6.83;;;;;;;7.53;68.55;100354.33;1764511;80;21077;-58
2021/10/27 07:52:50;;;;;;;9.93;7.40;;;;;;;7.62;68.30;100357.23;1765217;80;20959;-58
2021/10/27 07:55:16;;;;;;;18.07;6.90;;;;;;;7.70;68.05;100358.36;1793911;79;21082;-58
2021/10/27 07:57:44;;;;;;;8.50;5.70;;;;;;;7.77;67.70;100352.79;1791881;79;21084;-59
2021/10/27 08:00:14;;;;;;;10.63;5.03;;;;;;;7.88;67.40;100357.41;1790992;79;21094;-59
2021/10/27 08:02:42;;;;;;;10.67;4.97;;;;;;;8.01;67.21;100353.91;1768000;79;21646;-59
2021/10/27 08:05:08;;;;;;;12.20;4.70;;;;;;;8.12;66.74;100350.46;1780135;79;21326;-59
2021/10/27 08:07:44;;;;;;;6.33;5.23;;;;;;;8.22;66.50;100339.89;1782989;79;21058;-57
2021/10/27 08:10:13;;;;;;;8.43;6.20;;;;;;;8.34;66.19;100334.18;1787017;79;21052;-58
2021/10/27 08:12:43;;;;;;;5.63;4.47;;;;;;;8.47;65.80;100336.51;1783392;79;21123;-58
2021/10/27 08:15:11;;;;;;;8.40;5.40;;;;;;;8.59;65.60;100326.75;1786579;79;20997;-58
2021/10/27 08:17:38;;;;;;;14.83;6.37;;;;;;;8.69;65.02;100328.20;1780483;79;21061;-59
2021/10/27 08:20:06;;;;;;;12.07;5.70;;;;;;;8.78;64.64;100329.25;1783375;79;21036;-59
2021/10/27 08:22:34;;;;;;;7.97;5.77;;;;;;;8.87;64.42;100331.64;1789444;79;21506;-58
2021/10/27 08:25:05;;;;;;;9.07;6.43;;;;;;;8.95;63.88;100330.05;1786116;79;22557;-59
2021/10/27 08:27:33;;;;;;;7.00;5.50;;;;;;;9.02;63.41;100332.48;1780297;79;21257;-60
2021/10/27 08:30:04;;;;;;;6.47;5.67;;;;;;;9.04;63.07;100335.13;1783485;79;21099;-59
2021/10/27 08:34:53;;;;;;;8.80;7.10;;;;;;;9.17;62.93;100329.78;1785311;79;21386;-58
2021/10/27 08:37:22;;;;;;;10.67;7.43;;;;;;;9.27;62.50;100337.07;1777794;79;21105;-58
2021/10/27 08:39:48;;;;;;;13.97;6.43;;;;;;;9.33;62.12;100338.20;1776890;79;21627;-59
2021/10/27 08:42:16;;;;;;;9.20;5.30;;;;;;;9.39;61.91;100333.95;1777278;79;21037;-59
2021/10/27 08:44:43;;;;;;;9.63;5.47;;;;;;;9.46;61.81;100332.34;1776552;79;21155;-58
2021/10/27 08:47:09;;;;;;;8.47;5.00;;;;;;;9.58;61.41;100332.86;1775026;79;21156;-59
2021/10/27 08:49:37;;;;;;;8.63;6.35;;;;;;;9.70;61.16;100326.56;1778198;79;21056;-57
2021/10/27 08:52:07;;;;;;;10.50;6.08;;;;;;;9.82;60.62;100330.64;1776529;79;21582;-58
2021/10/27 08:54:33;;;;;;;11.68;6.45;;;;;;;9.89;60.29;100336.20;1774780;79;21120;-59
2021/10/27 08:57:07;;;;;;;9.93;6.53;;;;;;;9.95;59.58;100334.66;1773024;79;21045;-59
2021/10/27 09:07:49;;;;;;;7.78;5.58;;;;;;;10.10;58.63;100339.47;1774605;79;21076;-59
2021/10/27 09:36:31;;;;;;;7.85;5.42;;;;;;;10.38;57.22;100323.67;1678478;84;21841;-59
2021/10/27 10:04:37;;;;;;;11.57;6.35;;;;;;;10.59;56.04;100317.44;1684362;83;21526;-58
2021/10/27 10:06:47;;;;;;;13.88;6.12;;;;;;;10.63;56.24;100320.90;1687905;83;21094;-58
2021/10/27 10:09:14;;;;;;;16.35;6.60;;;;;;;10.66;55.91;100309.98;1697877;82;21523;-59
2021/10/27 10:11:40;;;;;;;9.50;6.62;;;;;;;10.67;56.07;100321.17;1689576;84;20954;-59
2021/10/27 10:14:11;;;;;;;6.78;6.15;;;;;;;10.66;55.76;100318.94;1687904;84;20993;-60
2021/10/27 10:16:42;;;;;;;11.83;6.28;;;;;;;10.66;55.63;100327.48;1692643;83;20913;-58
2021/10/27 10:19:16;;;;;;;10.88;6.20;;;;;;;10.65;55.72;100316.30;1646481;84;21135;-58
2021/10/27 10:21:45;;;;;;;14.47;8.98;;;;;;;10.67;55.68;100311.28;1672717;83;20899;-58
2021/10/27 10:24:29;;;;;;;10.03;6.78;;;;;;;10.70;55.76;100311.17;1674367;84;20938;-58
2021/10/27 10:26:54;;;;;;;10.85;7.67;;;;;;;10.72;55.77;100313.81;1674761;84;21101;-59
2021/10/27 10:29:43;;;;;;;18.17;8.68;;;;;;;10.71;55.68;100310.70;1672084;84;21121;-59
2021/10/27 10:32:29;;;;;;;11.70;6.65;;;;;;;10.70;55.46;100311.64;1672127;84;21039;-59
2021/10/27 10:35:13;;;;;;;14.70;7.65;;;;;;;10.70;55.54;100314.33;1671967;84;21065;-59
2021/10/27 10:38:03;;;;;;;14.38;8.95;;;;;;;10.68;55.54;100317.08;1672325;84;22203;-57
2021/10/27 10:40:40;;;;;;;19.30;9.48;;;;;;;10.67;55.54;100319.82;1666625;83;22181;-58
2021/10/27 10:43:10;;;;;;;14.43;8.30;;;;;;;10.66;55.40;100315.37;1657262;83;21469;-58
2021/10/27 11:25:01;;;;;;;19.42;9.43;;;;;;;10.23;56.36;100323.77;1633749;84;21140;-60
2021/10/27 11:27:33;;;;;;;16.85;10.48;;;;;;;10.24;56.51;100310.72;1676520;84;21134;-59
2021/10/27 11:38:23;;;;;;;14.50;9.68;;;;;;;10.21;56.63;100309.48;1678834;84;22326;-59
2021/10/27 11:40:48;;;;;;;15.72;10.48;;;;;;;10.20;56.84;100311.79;1681589;83;21574;-61
2021/10/27 11:45:57;;;;;;;16.60;11.08;;;;;;;10.21;57.04;100317.55;1676818;83;21514;-59
2021/10/27 11:50:55;;;;;;;13.90;10.78;;;;;;;10.24;57.43;100321.02;1701914;83;21109;-60
2021/10/27 11:53:24;;;;;;;19.32;10.93;;;;;;;10.23;57.42;100317.91;1702590;83;21472;-59
2021/10/27 11:55:53;;;;;;;21.37;12.00;;;;;;;10.22;57.41;100315.27;1676862;83;21332;-59
2021/10/27 11:58:38;;;;;;;19.55;11.57;;;;;;;10.20;57.45;100314.48;1673900;83;22095;-59
2021/10/27 12:01:06;;;;;;;16.80;12.20;;;;;;;10.21;57.42;100310.36;1698950;83;21597;-59
2021/10/27 12:03:39;;;;;;;16.70;10.72;;;;;;;10.24;57.20;100314.29;1680899;83;21108;-59
2021/10/27 12:06:15;;;;;;;18.73;11.63;;;;;;;10.27;57.26;100317.81;1676454;84;21177;-59
2021/10/27 12:13:47;;;;;;;22.32;11.63;;;;;;;10.30;57.32;100319.89;1667408;85;21060;-59
2021/10/27 12:19:24;;;;;;;14.73;10.48;;;;;;;10.32;57.33;100320.73;1675017;84;21560;-59
2021/10/27 12:22:00;;;;;;;18.40;12.30;;;;;;;10.30;57.48;100311.83;1677430;83;21184;-59
2021/10/27 12:24:36;;;;;;;19.75;12.60;;;;;;;10.29;57.53;100315.95;1673486;84;21058;-59
2021/10/27 12:27:08;;;;;;;19.10;13.13;;;;;;;10.26;57.73;100324.13;1673232;84;21065;-58
2021/10/27 12:29:37;;;;;;;20.62;12.23;;;;;;;10.24;57.82;100329.09;1674345;84;21181;-59
2021/10/27 12:32:15;;;;;;;20.12;12.58;;;;;;;10.23;57.99;100325.11;1678125;84;21161;-58
2021/10/27 12:34:48;;;;;;;17.67;12.50;;;;;;;10.23;57.99;100329.14;1677202;84;20966;-60
2021/10/27 12:40:25;;;;;;;22.95;13.72;;;;;;;10.23;58.35;100333.18;1674803;84;20919;-58
2021/10/27 12:43:07;;;;;;;24.80;16.30;;;;;;;10.21;58.46;100331.00;1678747;84;21488;-58
2021/10/27 12:45:46;;;;;;;23.10;14.60;;;;;;;10.23;58.67;100332.71;1671907;84;21051;-59
2021/10/27 12:48:17;;;;;;;23.20;14.05;;;;;;;10.26;58.68;100330.38;1674744;83;20923;-60
2021/10/27 12:51:03;;;;;;;26.57;16.67;;;;;;;10.26;58.68;100330.84;1674575;83;21368;-58
2021/10/27 12:53:35;;;;;;;20.88;14.63;;;;;;;10.25;58.80;100332.66;1680544;84;20902;-58
2021/10/27 12:56:23;;;;;;;24.85;17.12;;;;;;;10.26;58.99;100337.58;1718111;82;20908;-59
2021/10/27 12:58:54;;;;;;;23.45;16.23;;;;;;;10.29;59.10;100338.82;1713846;82;21056;-59
2021/10/27 13:06:55;;;;;;;25.30;17.70;;;;;;;10.32;59.52;100353.02;1712957;82;20868;-58
2021/10/27 13:09:33;;;;;;;16.02;12.30;;;;;;;10.30;59.73;100348.15;1716074;82;20967;-58
2021/10/27 13:20:04;;;;;;;19.27;13.45;;;;;;;10.26;60.75;100357.29;1728105;82;20879;-58
2021/10/27 13:22:36;;;;;;;22.50;13.83;;;;;;;10.22;61.10;100359.20;1731359;82;20942;-61
2021/10/27 13:30:36;;;;;;;18.62;11.63;;;;;;;10.22;61.75;100364.58;1645660;85;21137;-62
2021/10/27 13:33:04;;;;;;;20.95;11.57;;;;;;;10.24;61.90;100376.64;1686441;82;21535;-60
2021/10/27 13:35:34;;;;;;;20.37;12.82;;;;;;;10.26;61.98;100370.74;1726549;80;21042;-59
2021/10/27 13:38:00;;;;;;;17.98;10.88;;;;;;;10.28;62.04;100372.92;1728272;82;21404;-59
2021/10/27 13:40:27;;;;;;;19.45;12.35;;;;;;;10.30;62.13;100376.41;1731045;81;20986;-59
2021/10/27 13:42:59;;;;;;;18.00;11.73;;;;;;;10.28;62.17;100384.14;1729160;82;21097;-58
2021/10/27 13:48:04;;;;;;;18.67;13.10;;;;;;;10.21;62.36;100387.03;1717655;80;21479;-58
2021/10/27 13:59:13;;;;;;;23.07;12.95;;;;;;;9.94;63.04;100397.44;1734749;82;21322;-60
2021/10/27 14:07:16;;;;;;;16.97;10.32;;;;;;;9.80;63.39;100401.05;1730612;82;20161;-59
2021/10/27 14:20:13;;;;;;;22.42;12.25;;;;;;;9.76;63.92;100426.31;1718339;80;22495;-59
2021/10/27 14:22:42;;;;;;;24.07;14.07;;;;;;;9.73;64.05;100425.05;1720175;81;20911;-59
2021/10/27 15:20:03;;;;;;;15.05;9.98;;;;;;;9.36;66.38;100468.38;1713165;81;21150;-58
2021/10/27 15:25:20;;;;;;;15.63;10.03;;;;;;;9.42;66.47;100470.44;1712752;82;21473;-59
2021/10/27 15:43:45;;;;;;;19.25;11.73;;;;;;;9.29;66.95;100480.25;1718421;81;21121;-58
2021/10/27 15:51:42;;;;;;;27.58;15.32;;;;;;;9.27;67.34;100479.45;1707983;81;21195;-59
2021/10/27 15:54:05;;;;;;;22.82;15.08;;;;;;;9.30;67.37;100480.67;1708294;81;21548;-58
2021/10/27 15:56:34;;;;;;;29.42;15.98;;;;;;;9.33;67.33;100488.66;1717238;82;21483;-58
2021/10/27 15:59:00;;;;;;;25.50;15.25;;;;;;;9.34;67.32;100486.38;1711067;82;21105;-58
2021/10/27 16:01:27;;;;;;;21.90;13.20;;;;;;;9.35;67.29;100485.45;1715602;82;22649;-58
2021/10/27 16:03:53;;;;;;;28.05;15.28;;;;;;;9.34;67.30;100483.70;1711143;82;22361;-59
2021/10/27 16:06:24;;;;;;;21.33;13.65;;;;;;;9.32;67.29;100486.89;1713211;82;21605;-58
2021/10/27 16:08:50;;;;;;;19.92;13.80;;;;;;;9.31;67.30;100485.13;1710465;82;21066;-59